Time;durP1;ratioP1;P1;durP2;ratioP2;P2;SDS_P1;SDS_P2;PMS_P1;PMS_P2;Temp;Humidity;BMP_temperature;BMP_pressure;BME280_temperature;BME280_humidity;BME280_pressure;Samples;Min_cycle;Max_cycle;Signal;HPM_P1;HPM_P2
2021/10/16 00:01:25;;;;;;;17.58;6.90;;;7.80;99.90;;;;;;5034168;28;20565;-77
2021/10/16 00:03:53;;;;;;;13.38;6.40;;;7.80;99.90;;;;;;5033859;28;20163;-77
2021/10/16 00:06:20;;;;;;;18.27;6.38;;;7.80;99.90;;;;;;5033516;28;20140;-77
2021/10/16 00:08:47;;;;;;;16.67;6.70;;;7.80;99.90;;;;;;5033716;28;20136;-76
2021/10/16 00:11:14;;;;;;;19.05;8.27;;;7.80;99.90;;;;;;5033124;28;20485;-76
2021/10/16 00:13:42;;;;;;;16.33;7.00;;;7.80;99.90;;;;;;5033412;28;20132;-77
2021/10/16 00:16:11;;;;;;;18.27;6.78;;;7.70;99.90;;;;;;5033442;28;20167;-77
2021/10/16 00:18:38;;;;;;;16.05;7.15;;;7.70;99.90;;;;;;5033902;28;20049;-76
2021/10/16 00:21:06;;;;;;;21.60;6.85;;;7.70;99.90;;;;;;5033431;28;20426;-76
2021/10/16 00:23:33;;;;;;;22.40;7.80;;;7.70;99.90;;;;;;5032985;28;20050;-75
2021/10/16 00:26:02;;;;;;;16.25;6.53;;;7.70;99.90;;;;;;5032868;28;20049;-76
2021/10/16 00:28:28;;;;;;;19.38;6.88;;;7.60;99.90;;;;;;5033383;28;20051;-75
2021/10/16 00:30:55;;;;;;;19.70;8.48;;;7.60;99.90;;;;;;5033131;28;20052;-75
2021/10/16 00:33:26;;;;;;;20.90;8.05;;;7.60;99.90;;;;;;5032615;28;20083;-76
2021/10/16 00:35:53;;;;;;;21.13;7.03;;;7.50;99.90;;;;;;5032696;28;20507;-76
2021/10/16 00:38:20;;;;;;;17.88;7.05;;;7.50;99.90;;;;;;5033153;28;20053;-76
2021/10/16 00:40:47;;;;;;;18.40;6.85;;;7.50;99.90;;;;;;5033645;28;20080;-76
2021/10/16 00:43:14;;;;;;;19.05;7.28;;;7.50;99.90;;;;;;5033459;28;20132;-77
2021/10/16 00:45:41;;;;;;;18.85;6.50;;;7.40;99.90;;;;;;5033769;28;20109;-77
2021/10/16 00:48:08;;;;;;;14.30;6.53;;;7.50;99.90;;;;;;5033276;28;20079;-76
2021/10/16 00:50:36;;;;;;;18.25;6.40;;;7.40;99.90;;;;;;5033346;28;20429;-76
2021/10/16 00:53:03;;;;;;;18.10;6.72;;;7.40;99.90;;;;;;5033049;28;20521;-77
2021/10/16 00:55:30;;;;;;;15.18;6.78;;;7.30;99.90;;;;;;5032748;28;20145;-77
2021/10/16 00:57:59;;;;;;;19.02;6.97;;;7.20;99.90;;;;;;5033383;28;20136;-76
2021/10/16 01:00:26;;;;;;;19.20;6.53;;;7.10;99.90;;;;;;5033261;28;20088;-76
2021/10/16 01:02:53;;;;;;;16.20;6.15;;;7.10;99.90;;;;;;5033096;28;20152;-77
2021/10/16 01:05:20;;;;;;;20.05;6.53;;;7.10;99.90;;;;;;5033086;28;20092;-77
2021/10/16 01:07:49;;;;;;;17.45;6.85;;;7.10;99.90;;;;;;5032925;28;20136;-77
2021/10/16 01:10:16;;;;;;;16.65;6.55;;;7.20;99.90;;;;;;5033426;28;20434;-76
2021/10/16 01:12:45;;;;;;;16.63;6.53;;;7.20;99.90;;;;;;5033438;28;20489;-76
2021/10/16 01:15:16;;;;;;;15.55;6.25;;;7.10;99.90;;;;;;5032336;28;20045;-77
2021/10/16 01:17:45;;;;;;;23.83;7.07;;;7.10;99.90;;;;;;5032175;28;20056;-76
2021/10/16 01:20:16;;;;;;;15.70;7.88;;;7.10;99.90;;;;;;5032984;28;20056;-76
2021/10/16 01:22:45;;;;;;;15.70;7.10;;;7.10;99.90;;;;;;5032907;28;20144;-76
2021/10/16 01:25:13;;;;;;;20.30;6.75;;;7.10;99.90;;;;;;5032633;28;20116;-75
2021/10/16 01:27:41;;;;;;;20.35;6.93;;;7.10;99.90;;;;;;5032901;28;20077;-75
2021/10/16 01:30:10;;;;;;;21.27;6.63;;;7.10;99.90;;;;;;5032744;28;20053;-75
2021/10/16 01:32:38;;;;;;;17.90;6.82;;;7.20;99.90;;;;;;5032564;28;20128;-76
2021/10/16 01:35:07;;;;;;;21.00;7.30;;;7.20;99.90;;;;;;5032622;28;20064;-76
2021/10/16 01:37:34;;;;;;;18.08;6.88;;;7.20;99.90;;;;;;5032915;28;20046;-76
2021/10/16 01:40:02;;;;;;;20.80;7.28;;;7.20;99.90;;;;;;5032591;28;20598;-76
2021/10/16 01:42:29;;;;;;;19.65;6.70;;;7.20;99.90;;;;;;5032183;28;20057;-76
2021/10/16 01:44:56;;;;;;;18.25;6.90;;;7.20;99.90;;;;;;5032480;28;20156;-76
2021/10/16 01:47:23;;;;;;;20.20;6.90;;;7.20;99.90;;;;;;5032823;28;20049;-76
2021/10/16 01:49:50;;;;;;;15.75;6.65;;;7.20;99.90;;;;;;5032736;28;20091;-75
2021/10/16 01:52:17;;;;;;;12.18;6.82;;;7.20;99.90;;;;;;5032771;28;20136;-75
2021/10/16 01:54:44;;;;;;;20.83;6.90;;;7.20;99.90;;;;;;5032443;28;20088;-76
2021/10/16 01:57:12;;;;;;;22.38;7.15;;;7.10;99.90;;;;;;5032441;28;20449;-76
2021/10/16 01:59:39;;;;;;;20.60;6.97;;;7.10;99.90;;;;;;5032362;28;20053;-75
2021/10/16 02:02:06;;;;;;;13.95;6.55;;;7.10;99.90;;;;;;5032230;28;20152;-75
2021/10/16 02:04:33;;;;;;;14.30;6.78;;;7.00;99.90;;;;;;5032418;28;20136;-74
2021/10/16 02:07:00;;;;;;;16.95;7.35;;;6.90;99.90;;;;;;5032063;28;20467;-76
2021/10/16 02:09:27;;;;;;;16.13;7.20;;;6.80;99.90;;;;;;5032223;28;20132;-76
2021/10/16 02:11:54;;;;;;;19.27;7.32;;;6.70;99.90;;;;;;5033284;28;20403;-76
2021/10/16 02:14:22;;;;;;;18.35;7.38;;;6.70;99.90;;;;;;5035864;28;20100;-77
2021/10/16 02:16:49;;;;;;;16.60;7.47;;;6.60;99.90;;;;;;5035607;28;20140;-76
2021/10/16 02:19:15;;;;;;;14.93;6.78;;;6.60;99.90;;;;;;5035869;28;20140;-77
2021/10/16 02:21:42;;;;;;;20.58;7.03;;;6.60;99.90;;;;;;5035260;28;20140;-76
2021/10/16 02:24:09;;;;;;;17.77;7.40;;;6.50;99.90;;;;;;5035423;28;20136;-76
2021/10/16 02:26:36;;;;;;;16.42;7.50;;;6.50;99.90;;;;;;5036331;28;20085;-76
2021/10/16 02:29:03;;;;;;;18.50;7.65;;;6.50;99.90;;;;;;5035763;28;20060;-75
2021/10/16 02:31:31;;;;;;;14.77;7.07;;;6.50;99.90;;;;;;5035520;28;20136;-75
2021/10/16 02:33:58;;;;;;;16.42;6.93;;;6.50;99.90;;;;;;5035554;28;20459;-74
2021/10/16 02:36:25;;;;;;;16.75;7.40;;;6.40;99.90;;;;;;5035268;28;20079;-75
2021/10/16 02:38:52;;;;;;;19.88;7.13;;;6.40;99.90;;;;;;5035267;28;20045;-74
2021/10/16 02:41:19;;;;;;;13.85;6.70;;;6.40;99.90;;;;;;5034898;28;20645;-75
2021/10/16 02:43:45;;;;;;;16.38;7.15;;;6.40;99.90;;;;;;5034797;28;20144;-74
2021/10/16 02:46:12;;;;;;;14.82;6.90;;;6.40;99.90;;;;;;5035216;28;20089;-75
2021/10/16 02:48:40;;;;;;;14.18;7.28;;;6.40;99.90;;;;;;5035177;28;20049;-76
2021/10/16 02:51:07;;;;;;;15.52;6.82;;;6.40;99.90;;;;;;5035335;28;20076;-75
2021/10/16 02:53:35;;;;;;;12.32;7.07;;;6.30;99.90;;;;;;5035137;28;20049;-74
2021/10/16 02:56:02;;;;;;;15.98;7.63;;;6.30;99.90;;;;;;5034594;28;20146;-75
2021/10/16 02:58:29;;;;;;;15.23;7.65;;;6.30;99.90;;;;;;5035212;28;20049;-75
2021/10/16 03:00:56;;;;;;;17.05;7.82;;;6.30;99.90;;;;;;5035113;28;20060;-75
2021/10/16 03:03:23;;;;;;;19.83;7.53;;;6.30;99.90;;;;;;5034411;28;20138;-75
2021/10/16 03:05:51;;;;;;;16.63;7.25;;;6.20;99.90;;;;;;5034849;28;20144;-75
2021/10/16 03:08:18;;;;;;;18.98;7.38;;;6.20;99.90;;;;;;5034554;28;20056;-73
2021/10/16 03:10:45;;;;;;;17.55;8.13;;;6.20;99.90;;;;;;5034987;28;20079;-75
2021/10/16 03:13:12;;;;;;;22.17;8.05;;;6.30;99.90;;;;;;5034871;28;20050;-75
2021/10/16 03:15:39;;;;;;;16.10;7.15;;;6.30;99.90;;;;;;5035054;28;20053;-74
2021/10/16 03:18:05;;;;;;;19.52;7.65;;;6.30;99.90;;;;;;5034488;28;20141;-76
2021/10/16 03:20:32;;;;;;;14.65;7.22;;;6.20;99.90;;;;;;5034404;28;20049;-76
2021/10/16 03:23:00;;;;;;;14.00;7.25;;;6.20;99.90;;;;;;5033905;28;20085;-76
2021/10/16 03:25:27;;;;;;;16.17;8.20;;;6.20;99.90;;;;;;5034606;28;20060;-76
2021/10/16 03:27:55;;;;;;;16.17;7.35;;;6.30;99.90;;;;;;5034231;28;20053;-76
2021/10/16 03:30:21;;;;;;;18.45;7.90;;;6.30;99.90;;;;;;5034523;28;20483;-75
2021/10/16 03:32:48;;;;;;;17.55;7.38;;;6.20;99.90;;;;;;5034562;28;20064;-76
2021/10/16 03:35:15;;;;;;;18.13;8.02;;;6.20;99.90;;;;;;5034050;28;20053;-76
2021/10/16 03:37:42;;;;;;;18.02;7.05;;;6.20;99.90;;;;;;5034462;28;20495;-76
2021/10/16 03:40:12;;;;;;;17.77;7.65;;;6.20;99.90;;;;;;5034367;28;20055;-76
2021/10/16 03:42:39;;;;;;;16.73;7.80;;;6.20;99.90;;;;;;5033920;28;20562;-75
2021/10/16 03:45:06;;;;;;;19.83;7.15;;;6.20;99.90;;;;;;5033439;28;20088;-76
2021/10/16 03:47:33;;;;;;;16.88;7.47;;;6.20;99.90;;;;;;5034691;28;20495;-76
2021/10/16 03:50:00;;;;;;;18.70;7.60;;;6.20;99.90;;;;;;5034257;28;20481;-77
2021/10/16 03:52:27;;;;;;;20.20;8.18;;;6.10;99.90;;;;;;5034657;28;20132;-77
2021/10/16 03:54:53;;;;;;;23.42;8.25;;;6.10;99.90;;;;;;5033851;28;20049;-76
2021/10/16 03:57:24;;;;;;;10.98;6.78;;;6.10;99.90;;;;;;5034293;28;20171;-76
2021/10/16 03:59:51;;;;;;;17.50;7.18;;;6.00;99.90;;;;;;5034387;28;20579;-77
2021/10/16 04:02:19;;;;;;;19.27;7.03;;;6.00;99.90;;;;;;5034232;28;20053;-76
2021/10/16 04:04:46;;;;;;;21.85;9.20;;;5.90;99.90;;;;;;5033214;28;20055;-75
2021/10/16 04:07:13;;;;;;;17.73;7.47;;;5.90;99.90;;;;;;5034417;28;20053;-75
2021/10/16 04:09:40;;;;;;;16.48;7.38;;;5.80;99.90;;;;;;5033683;28;20057;-75
2021/10/16 04:12:07;;;;;;;16.63;6.90;;;5.80;99.90;;;;;;5033550;28;20050;-76
2021/10/16 04:14:35;;;;;;;21.02;7.95;;;5.60;99.90;;;;;;5033684;28;20136;-75
2021/10/16 04:17:02;;;;;;;16.85;7.55;;;5.50;99.90;;;;;;5032998;28;20475;-76
2021/10/16 04:19:29;;;;;;;15.10;7.72;;;5.50;99.90;;;;;;5033572;28;20067;-75
2021/10/16 04:21:56;;;;;;;13.73;7.32;;;5.50;99.90;;;;;;5033760;28;20049;-75
2021/10/16 04:24:23;;;;;;;21.15;7.40;;;5.50;99.90;;;;;;5033454;28;20045;-75
2021/10/16 04:26:50;;;;;;;19.30;7.65;;;5.50;99.90;;;;;;5032780;28;20053;-75
2021/10/16 04:29:17;;;;;;;16.85;7.45;;;5.40;99.90;;;;;;5033521;28;20438;-75
2021/10/16 04:31:45;;;;;;;17.30;7.15;;;5.50;99.90;;;;;;5033211;28;20064;-76
2021/10/16 04:34:12;;;;;;;14.82;8.05;;;5.50;99.90;;;;;;5032347;28;20136;-74
2021/10/16 04:36:39;;;;;;;23.25;8.50;;;5.50;99.90;;;;;;5030688;28;20067;-75
2021/10/16 04:39:06;;;;;;;20.10;8.65;;;5.40;99.90;;;;;;5032443;28;20053;-76
2021/10/16 04:41:35;;;;;;;24.55;8.20;;;5.40;99.90;;;;;;4989629;28;20048;-76
2021/10/16 04:44:02;;;;;;;26.15;8.52;;;5.40;99.90;;;;;;4979772;28;20051;-75
2021/10/16 04:46:29;;;;;;;23.60;8.25;;;5.40;99.90;;;;;;4972603;28;20042;-75
2021/10/16 04:48:57;;;;;;;20.48;7.65;;;5.40;99.90;;;;;;4973569;28;20054;-75
2021/10/16 04:51:24;;;;;;;23.88;8.93;;;5.30;99.90;;;;;;4972989;28;20134;-75
2021/10/16 04:53:51;;;;;;;26.23;7.70;;;5.40;99.90;;;;;;4970385;28;20556;-75
2021/10/16 04:56:18;;;;;;;21.05;7.40;;;5.40;99.90;;;;;;4963558;28;20047;-75
2021/10/16 04:58:45;;;;;;;21.98;7.82;;;5.40;99.90;;;;;;4971525;28;20126;-75
2021/10/16 05:01:11;;;;;;;19.75;8.50;;;5.30;99.90;;;;;;4968934;28;20038;-76
2021/10/16 05:03:38;;;;;;;18.02;7.65;;;5.30;99.90;;;;;;4969165;28;20145;-74
2021/10/16 05:06:07;;;;;;;17.33;7.30;;;5.30;99.90;;;;;;4970990;28;20129;-75
2021/10/16 05:08:35;;;;;;;14.10;6.88;;;5.30;99.90;;;;;;4972787;28;20057;-74
2021/10/16 05:11:02;;;;;;;21.25;7.22;;;5.30;99.90;;;;;;4973327;28;20592;-75
2021/10/16 05:13:29;;;;;;;16.85;6.82;;;5.30;99.90;;;;;;4973156;28;20484;-75
2021/10/16 05:15:56;;;;;;;13.65;6.70;;;5.30;99.90;;;;;;4969780;28;20046;-75
2021/10/16 05:18:23;;;;;;;16.98;7.20;;;5.30;99.90;;;;;;4972428;28;20073;-75
2021/10/16 05:20:52;;;;;;;21.10;8.02;;;5.30;99.90;;;;;;4973644;28;20097;-75
2021/10/16 05:23:22;;;;;;;18.75;7.65;;;5.30;99.90;;;;;;4973943;28;20092;-75
2021/10/16 05:25:51;;;;;;;17.67;7.47;;;5.20;99.90;;;;;;4972623;28;20058;-76
2021/10/16 05:28:18;;;;;;;23.15;9.98;;;5.10;99.90;;;;;;4971249;28;20051;-76
2021/10/16 05:30:46;;;;;;;28.17;7.78;;;5.10;99.90;;;;;;4970688;28;20051;-76
2021/10/16 05:33:14;;;;;;;44.50;11.07;;;5.10;99.90;;;;;;4959009;28;20054;-76
2021/10/16 05:35:43;;;;;;;39.97;9.85;;;5.10;99.90;;;;;;4978398;28;20055;-77
2021/10/16 05:38:10;;;;;;;60.45;11.05;;;5.00;99.90;;;;;;4977299;28;20150;-76
2021/10/16 05:40:39;;;;;;;37.63;9.95;;;5.00;99.90;;;;;;4979130;28;20133;-78
2021/10/16 05:43:05;;;;;;;45.85;10.43;;;5.00;99.90;;;;;;4975227;28;20112;-76
2021/10/16 05:45:32;;;;;;;35.95;10.43;;;5.00;99.90;;;;;;4980066;28;20047;-76
2021/10/16 05:47:59;;;;;;;31.15;10.05;;;5.00;99.90;;;;;;4987480;28;20124;-75
2021/10/16 05:50:26;;;;;;;41.13;10.38;;;5.00;99.90;;;;;;4981175;28;20047;-77
2021/10/16 05:53:46;;;;;;;39.28;11.27;;;4.90;99.90;;;;;;4986608;23;20202;-77
2021/10/16 05:56:34;;;;;;;34.63;10.77;;;4.80;99.90;;;;;;4928213;28;20061;-79
2021/10/16 06:14:24;;;;;;;50.20;12.35;;;4.50;99.90;;;;;;4792476;29;20082;-78
2021/10/16 06:24:14;;;;;;;89.97;13.85;;;4.30;99.90;;;;;;4944026;29;20070;-78
2021/10/16 06:34:02;;;;;;;76.15;16.00;;;4.20;99.90;;;;;;4893919;29;20040;-78
2021/10/16 06:36:57;;;;;;;;;;;;;;;;;;;;;
2021/10/16 06:56:39;;;;;;;133.88;21.95;;;4.60;99.90;;;;;;5014381;23;20050;-79
2021/10/16 06:59:34;;;;;;;146.57;22.98;;;4.60;99.90;;;;;;4997749;28;20054;-80
2021/10/16 07:02:12;;;;;;;111.07;23.83;;;4.60;99.90;;;;;;5002561;28;20137;-80
2021/10/16 07:04:50;;;;;;;49.45;20.63;;;4.70;99.90;;;;;;5002572;28;20089;-80
2021/10/16 07:07:17;;;;;;;66.20;23.65;;;4.90;99.90;;;;;;5001349;28;20071;-78
2021/10/16 07:09:54;;;;;;;52.25;22.02;;;5.10;99.90;;;;;;4999843;28;20069;-78
2021/10/16 07:16:11;;;;;;;69.07;21.88;;;5.30;99.90;;;;;;4999070;28;20294;-79
2021/10/16 07:21:46;;;;;;;106.90;22.48;;;5.50;99.90;;;;;;4998546;28;20097;-81
2021/10/16 07:24:27;;;;;;;128.60;22.00;;;5.50;99.90;;;;;;5000659;28;20057;-79
2021/10/16 07:27:26;;;;;;;110.32;23.15;;;5.50;99.90;;;;;;5002427;28;20054;-80
2021/10/16 07:30:29;;;;;;;103.78;21.98;;;5.50;99.90;;;;;;5005018;28;20057;-79
2021/10/16 07:33:14;;;;;;;72.53;20.95;;;5.60;99.90;;;;;;5004675;28;20088;-79
2021/10/16 07:35:58;;;;;;;88.40;24.88;;;5.60;99.90;;;;;;5005246;23;20046;-78
2021/10/16 07:39:22;;;;;;;132.73;27.48;;;5.80;99.90;;;;;;5001962;28;20046;-78
2021/10/16 07:45:10;;;;;;;167.30;30.98;;;5.80;99.90;;;;;;4909287;29;20051;-79
2021/10/16 07:47:44;;;;;;;163.45;32.40;;;5.90;99.90;;;;;;4941419;29;20127;-78
2021/10/16 07:50:11;;;;;;;163.10;33.38;;;5.90;99.90;;;;;;4970822;23;20039;-76
2021/10/16 07:52:38;;;;;;;148.45;35.90;;;6.00;99.90;;;;;;4975406;28;20515;-76
2021/10/16 07:55:05;;;;;;;169.77;34.63;;;6.00;99.90;;;;;;4976058;28;20360;-76
2021/10/16 07:57:32;;;;;;;146.05;35.47;;;6.00;99.90;;;;;;4975209;28;20550;-76
2021/10/16 08:00:01;;;;;;;154.65;35.20;;;6.10;99.90;;;;;;4975721;28;20050;-75
2021/10/16 08:02:27;;;;;;;170.57;36.85;;;6.30;99.90;;;;;;4975022;28;20133;-76
2021/10/16 08:04:56;;;;;;;153.43;35.88;;;6.30;99.90;;;;;;4962522;28;20053;-76
2021/10/16 08:07:23;;;;;;;186.30;38.53;;;6.40;99.90;;;;;;4964078;28;20082;-77
2021/10/16 08:09:50;;;;;;;111.35;36.67;;;6.50;99.90;;;;;;5006216;23;20046;-75
2021/10/16 08:12:16;;;;;;;198.88;38.63;;;6.60;99.90;;;;;;4968425;28;20043;-79
2021/10/16 08:14:43;;;;;;;183.35;38.28;;;6.50;99.90;;;;;;4973912;28;20086;-77
2021/10/16 08:17:12;;;;;;;158.57;38.70;;;6.50;99.90;;;;;;4975650;28;20086;-76
2021/10/16 08:19:38;;;;;;;177.75;38.95;;;6.50;99.90;;;;;;4975511;28;20079;-77
2021/10/16 08:22:08;;;;;;;154.35;37.92;;;6.60;99.90;;;;;;4974986;28;20055;-78
2021/10/16 08:24:35;;;;;;;174.02;37.88;;;6.70;99.90;;;;;;4975039;28;20165;-76
2021/10/16 08:27:02;;;;;;;154.50;34.33;;;6.90;99.90;;;;;;4974476;28;20141;-77
2021/10/16 08:29:29;;;;;;;136.50;36.10;;;7.00;99.90;;;;;;4975585;28;20051;-77
2021/10/16 08:31:58;;;;;;;244.38;39.28;;;7.10;99.90;;;;;;4975678;28;20559;-77
2021/10/16 08:34:29;;;;;;;199.85;36.03;;;7.20;99.90;;;;;;4965441;28;20074;-77
2021/10/16 08:36:57;;;;;;;141.73;34.58;;;7.20;99.90;;;;;;4974731;28;20567;-79
2021/10/16 08:39:24;;;;;;;183.05;34.20;;;7.10;99.90;;;;;;4972072;28;20487;-78
2021/10/16 08:41:51;;;;;;;144.10;32.65;;;7.20;99.90;;;;;;4963617;28;20134;-77
2021/10/16 08:44:18;;;;;;;121.53;34.17;;;7.30;99.90;;;;;;4958270;28;20054;-76
2021/10/16 08:46:45;;;;;;;100.50;34.03;;;7.30;99.90;;;;;;4970752;28;20073;-76
2021/10/16 08:49:14;;;;;;;82.20;34.85;;;7.40;99.90;;;;;;4956762;28;20051;-76
2021/10/16 08:51:43;;;;;;;102.15;35.80;;;7.60;99.90;;;;;;4961501;28;20085;-76
2021/10/16 08:54:10;;;;;;;124.03;35.38;;;7.70;99.90;;;;;;4967105;28;20126;-77
2021/10/16 08:56:37;;;;;;;244.82;36.70;;;7.80;99.90;;;;;;4964452;28;20051;-77
2021/10/16 08:59:04;;;;;;;128.13;34.03;;;7.80;99.90;;;;;;4959774;28;20126;-76
2021/10/16 09:01:31;;;;;;;133.10;36.35;;;7.90;99.90;;;;;;4973410;28;20130;-76
2021/10/16 09:03:58;;;;;;;180.32;36.60;;;7.90;99.90;;;;;;4974918;28;20097;-77
2021/10/16 09:06:27;;;;;;;157.90;38.33;;;7.80;99.90;;;;;;4974572;28;20055;-77
2021/10/16 09:08:57;;;;;;;84.47;36.97;;;7.70;99.90;;;;;;4969599;28;20057;-76
2021/10/16 09:11:27;;;;;;;112.28;36.00;;;7.80;99.90;;;;;;4974950;28;20501;-77
2021/10/16 09:13:57;;;;;;;80.43;37.30;;;8.00;99.90;;;;;;4976027;28;20062;-78
2021/10/16 09:16:37;;;;;;;162.88;38.10;;;8.10;99.90;;;;;;4974982;28;20055;-76
2021/10/16 09:19:10;;;;;;;123.20;37.25;;;8.20;99.90;;;;;;4974665;28;20102;-77
2021/10/16 09:21:40;;;;;;;233.27;41.17;;;8.00;99.90;;;;;;4976787;28;20058;-77
2021/10/16 09:24:17;;;;;;;106.28;36.95;;;8.10;99.90;;;;;;4978701;28;20054;-77
2021/10/16 09:26:45;;;;;;;102.20;36.20;;;8.10;99.90;;;;;;4978079;28;20516;-77
2021/10/16 09:29:18;;;;;;;92.57;38.90;;;8.20;99.90;;;;;;4978084;28;20146;-77
2021/10/16 09:31:47;;;;;;;90.90;38.47;;;8.20;99.90;;;;;;4978529;28;20055;-77
2021/10/16 09:34:23;;;;;;;88.63;39.70;;;8.30;99.90;;;;;;4977980;28;20051;-78
2021/10/16 09:36:50;;;;;;;91.88;42.08;;;8.50;99.90;;;;;;4978425;28;20425;-78
2021/10/16 09:39:20;;;;;;;85.03;39.33;;;8.70;99.90;;;;;;4978374;28;20439;-77
2021/10/16 09:41:50;;;;;;;100.35;41.35;;;8.80;99.90;;;;;;4978701;28;20194;-77
2021/10/16 09:44:28;;;;;;;100.90;53.30;;;8.90;99.90;;;;;;4982361;28;20050;-77
2021/10/16 09:47:08;;;;;;;90.65;40.05;;;9.00;99.90;;;;;;4980582;28;20485;-77
2021/10/16 09:49:39;;;;;;;84.75;39.42;;;9.10;99.90;;;;;;4984927;23;20508;-77
2021/10/16 09:52:08;;;;;;;89.70;41.42;;;9.10;99.90;;;;;;4978383;28;20086;-75
2021/10/16 09:54:42;;;;;;;93.35;41.95;;;8.90;99.90;;;;;;4978088;28;20105;-77
2021/10/16 09:57:10;;;;;;;88.57;39.30;;;8.70;99.90;;;;;;4977256;28;20075;-79
2021/10/16 09:59:39;;;;;;;93.57;39.95;;;8.50;99.90;;;;;;4977727;28;20129;-77
2021/10/16 10:34:04;;;;;;;61.83;36.08;;;9.80;99.90;;;;;;5020113;23;20057;-79
2021/10/16 10:36:54;;;;;;;62.38;36.35;;;9.90;99.90;;;;;;4965636;28;20107;-78
2021/10/16 10:39:51;;;;;;;62.13;33.75;;;10.00;99.90;;;;;;4958767;28;20051;-80
2021/10/16 10:42:49;;;;;;;59.08;35.17;;;9.90;99.90;;;;;;4955806;28;20056;-79
2021/10/16 10:45:32;;;;;;;54.67;34.88;;;10.10;99.90;;;;;;4999488;23;20054;-76
2021/10/16 10:48:18;;;;;;;61.83;36.75;;;10.00;99.90;;;;;;4968920;28;20460;-78
2021/10/16 10:51:00;;;;;;;66.30;41.00;;;9.90;99.90;;;;;;4975158;28;20142;-78
2021/10/16 10:53:32;;;;;;;72.70;45.80;;;9.80;99.90;;;;;;4977041;28;20496;-78
2021/10/16 10:56:01;;;;;;;68.97;42.88;;;9.80;99.90;;;;;;4976569;28;20478;-77
2021/10/16 10:59:06;;;;;;;60.10;37.70;;;9.90;99.90;;;;;;4976655;28;20055;-78
2021/10/16 11:01:51;;;;;;;61.05;37.28;;;10.00;99.90;;;;;;4936225;29;20054;-78
2021/10/16 11:04:43;;;;;;;56.53;36.95;;;10.20;99.90;;;;;;4935695;29;20082;-78
2021/10/16 11:07:13;;;;;;;56.10;35.83;;;10.20;99.90;;;;;;4967373;28;20080;-78
2021/10/16 11:09:41;;;;;;;50.97;33.20;;;10.30;99.90;;;;;;4976701;28;20089;-79
2021/10/16 11:12:09;;;;;;;54.00;31.25;;;10.30;99.90;;;;;;4976572;28;20047;-78
2021/10/16 11:14:39;;;;;;;45.00;29.77;;;10.40;99.90;;;;;;4976652;28;20054;-77
2021/10/16 11:17:07;;;;;;;39.70;28.35;;;10.50;99.90;;;;;;4978434;28;20126;-78
2021/10/16 11:19:51;;;;;;;38.95;25.88;;;10.70;99.90;;;;;;4977540;28;20051;-77
2021/10/16 11:22:19;;;;;;;37.30;24.80;;;10.70;99.90;;;;;;4979600;28;20481;-79
2021/10/16 11:24:46;;;;;;;38.42;22.92;;;10.80;99.90;;;;;;4977851;28;20129;-78
2021/10/16 11:27:20;;;;;;;37.33;24.25;;;11.00;99.90;;;;;;4976842;28;20053;-77
2021/10/16 11:29:48;;;;;;;43.90;25.45;;;11.20;99.90;;;;;;4975528;28;20130;-78
2021/10/16 11:32:18;;;;;;;40.55;21.60;;;11.30;99.90;;;;;;4975866;28;20129;-78
2021/10/16 11:35:01;;;;;;;30.85;17.67;;;11.40;99.90;;;;;;4975995;28;20491;-77
2021/10/16 11:37:43;;;;;;;36.72;19.33;;;11.40;99.90;;;;;;4975850;28;20055;-78
2021/10/16 11:40:13;;;;;;;33.55;16.42;;;11.40;99.90;;;;;;4975547;28;20051;-77
2021/10/16 11:42:43;;;;;;;31.75;16.85;;;11.50;99.90;;;;;;4975883;28;20133;-76
2021/10/16 11:45:14;;;;;;;35.42;19.08;;;11.50;99.90;;;;;;4975819;28;20082;-77
2021/10/16 11:47:42;;;;;;;34.70;18.33;;;11.60;99.90;;;;;;4980609;28;20200;-75
2021/10/16 11:50:14;;;;;;;28.75;16.58;;;11.80;99.90;;;;;;4979820;28;20051;-78
2021/10/16 11:52:42;;;;;;;36.67;18.73;;;11.80;99.90;;;;;;4978084;28;20050;-77
2021/10/16 11:55:15;;;;;;;30.30;17.77;;;11.90;99.90;;;;;;4975505;28;20062;-78
2021/10/16 11:57:42;;;;;;;24.92;14.60;;;12.10;99.90;;;;;;4976105;28;20057;-77
2021/10/16 12:00:22;;;;;;;30.27;16.27;;;12.30;99.90;;;;;;4975380;28;20504;-77
2021/10/16 12:02:49;;;;;;;27.48;18.33;;;12.40;99.90;;;;;;4975588;28;20061;-78
2021/10/16 12:05:18;;;;;;;29.80;17.27;;;12.50;99.90;;;;;;4974978;28;20142;-77
2021/10/16 12:07:45;;;;;;;28.40;16.15;;;12.60;99.90;;;;;;4975633;28;20095;-77
2021/10/16 12:10:20;;;;;;;24.38;15.00;;;12.80;99.90;;;;;;4975172;28;20078;-78
2021/10/16 12:13:04;;;;;;;23.05;12.73;;;12.90;99.90;;;;;;4975440;28;20141;-77
2021/10/16 12:15:45;;;;;;;25.42;12.27;;;13.00;99.90;;;;;;4975143;28;20086;-77
2021/10/16 12:18:24;;;;;;;29.63;12.00;;;13.00;99.90;;;;;;4976270;28;20456;-77
2021/10/16 12:20:54;;;;;;;20.73;11.02;;;13.00;99.90;;;;;;4977362;28;20046;-79
2021/10/16 12:23:23;;;;;;;21.92;11.15;;;13.00;99.90;;;;;;4982005;28;20054;-79
2021/10/16 12:25:53;;;;;;;22.35;9.68;;;13.00;99.90;;;;;;4977540;28;20065;-79
2021/10/16 12:28:21;;;;;;;25.13;12.10;;;13.00;99.90;;;;;;4977222;28;20059;-77
2021/10/16 12:31:10;;;;;;;24.10;12.70;;;13.10;99.90;;;;;;4975573;28;20133;-77
2021/10/16 12:33:59;;;;;;;24.30;12.85;;;13.00;99.90;;;;;;4961340;28;20138;-79
2021/10/16 12:36:28;;;;;;;24.30;13.02;;;13.20;99.90;;;;;;4955058;28;20061;-78
2021/10/16 12:38:55;;;;;;;20.65;11.57;;;13.20;99.90;;;;;;4967246;28;20047;-77
2021/10/16 12:41:27;;;;;;;24.88;12.27;;;13.20;99.90;;;;;;4974981;28;20442;-79
2021/10/16 12:43:54;;;;;;;24.15;11.63;;;13.30;99.90;;;;;;4976012;28;20126;-78
2021/10/16 12:46:30;;;;;;;24.77;11.95;;;13.40;99.90;;;;;;4972981;28;20082;-78
2021/10/16 12:48:57;;;;;;;23.60;11.32;;;13.60;99.90;;;;;;4968507;28;20113;-77
2021/10/16 12:51:41;;;;;;;18.48;8.68;;;13.80;99.90;;;;;;4973996;28;20057;-77
2021/10/16 12:54:08;;;;;;;16.48;7.97;;;13.90;99.90;;;;;;4974163;28;20501;-77
2021/10/16 12:56:35;;;;;;;15.20;6.80;;;14.00;99.90;;;;;;4973275;28;20138;-77
2021/10/16 12:59:03;;;;;;;16.05;7.00;;;14.10;99.90;;;;;;4973762;28;20054;-78
2021/10/16 13:01:32;;;;;;;17.20;7.90;;;14.10;99.90;;;;;;4973436;28;20074;-77
2021/10/16 13:04:00;;;;;;;17.10;7.95;;;14.20;99.90;;;;;;4973919;28;20424;-78
2021/10/16 13:06:26;;;;;;;14.60;7.40;;;14.30;99.90;;;;;;4972389;28;20086;-78
2021/10/16 13:08:53;;;;;;;12.68;7.65;;;14.30;99.90;;;;;;4973888;28;20125;-78
2021/10/16 13:11:20;;;;;;;16.23;7.60;;;14.30;99.90;;;;;;4973840;28;20162;-78
2021/10/16 13:13:47;;;;;;;18.10;8.00;;;14.30;99.90;;;;;;4974041;28;20051;-78
2021/10/16 13:16:15;;;;;;;16.35;8.10;;;14.20;99.90;;;;;;4974530;28;20051;-76
2021/10/16 13:18:43;;;;;;;22.65;8.57;;;14.30;99.90;;;;;;4975092;28;20106;-77
2021/10/16 13:21:10;;;;;;;15.20;7.85;;;14.20;99.90;;;;;;4974744;28;20051;-76
2021/10/16 13:23:38;;;;;;;13.68;7.57;;;14.40;99.90;;;;;;4974405;28;20057;-78
2021/10/16 13:26:05;;;;;;;15.90;7.68;;;14.40;99.90;;;;;;4973649;28;20441;-78
2021/10/16 13:28:32;;;;;;;17.20;7.88;;;14.40;99.90;;;;;;4974168;28;20057;-78
2021/10/16 13:30:59;;;;;;;15.80;7.53;;;14.30;99.90;;;;;;4974158;28;20082;-78
2021/10/16 13:33:26;;;;;;;15.57;7.28;;;14.30;99.90;;;;;;4974262;28;20081;-78
2021/10/16 13:35:54;;;;;;;12.57;6.55;;;14.40;99.90;;;;;;4973917;28;20058;-77
2021/10/16 13:38:21;;;;;;;12.98;6.78;;;14.50;99.90;;;;;;4974768;28;20059;-77
2021/10/16 13:40:50;;;;;;;16.55;7.03;;;14.50;99.90;;;;;;4976198;28;20131;-78
2021/10/16 13:43:17;;;;;;;14.93;8.02;;;14.50;99.90;;;;;;4974161;28;20134;-76
2021/10/16 13:45:44;;;;;;;16.80;7.50;;;14.50;99.90;;;;;;4973435;28;20055;-76
2021/10/16 13:48:12;;;;;;;17.30;6.97;;;14.50;99.90;;;;;;4973356;28;20133;-77
2021/10/16 13:50:38;;;;;;;16.63;6.95;;;14.50;99.90;;;;;;4973606;28;20153;-77
2021/10/16 13:53:07;;;;;;;14.30;7.45;;;14.50;99.90;;;;;;4973055;28;20431;-78
2021/10/16 13:55:34;;;;;;;18.08;7.07;;;14.50;99.90;;;;;;4973536;28;20051;-77
2021/10/16 13:58:01;;;;;;;14.50;6.82;;;14.30;99.90;;;;;;4973800;28;20133;-76
2021/10/16 14:00:28;;;;;;;16.50;7.50;;;14.20;99.90;;;;;;4974273;28;20089;-77
2021/10/16 14:02:54;;;;;;;13.95;7.25;;;13.90;99.90;;;;;;4974049;28;20043;-77
2021/10/16 14:05:21;;;;;;;15.18;6.20;;;13.60;99.90;;;;;;4973535;28;20552;-77
2021/10/16 14:07:48;;;;;;;12.75;6.90;;;13.50;99.90;;;;;;4974848;28;20095;-77
2021/10/16 14:10:16;;;;;;;9.55;5.28;;;13.40;99.90;;;;;;4977305;28;20051;-78
2021/10/16 14:12:43;;;;;;;13.45;6.15;;;13.30;99.90;;;;;;4976760;28;20086;-78
2021/10/16 14:15:11;;;;;;;14.93;5.10;;;13.20;99.90;;;;;;4976725;28;20126;-76
2021/10/16 14:17:38;;;;;;;9.13;4.72;;;13.30;99.90;;;;;;4977277;28;20051;-76
2021/10/16 14:20:06;;;;;;;13.48;5.88;;;13.30;99.90;;;;;;4976452;28;20138;-77
2021/10/16 14:22:33;;;;;;;12.52;5.60;;;13.30;99.90;;;;;;4977118;28;20085;-78
2021/10/16 14:25:01;;;;;;;10.10;5.10;;;13.30;99.90;;;;;;4976414;28;20089;-76